Date,TemperatureHighF,TemperatureAvgF,TemperatureLowF,DewpointHighF,DewpointAvgF,DewpointLowF,HumidityHigh,HumidityAvg,HumidityLow,PressureMaxIn,PressureMinIn,WindSpeedMaxMPH,WindSpeedAvgMPH,GustSpeedMaxMPH,PrecipitationSumIn
2013-10-1,78.4,70.0,64.5,72.9,67.8,63.3,98,93,83,30.03,29.94,3,0,6,0.20
2013-10-2,84.3,73.0,67.3,73.5,69.4,66.7,98,89,63,30.06,29.99,6,1,12,0.03
2013-10-3,86.9,75.4,66.2,70.5,68.3,65.0,97,80,56,30.03,29.91,6,1,12,0.00
2013-10-4,88.0,76.2,67.1,74.3,70.2,65.9,96,83,58,30.02,29.92,5,1,14,0.00
2013-10-5,86.3,75.5,67.9,74.5,71.2,67.0,97,87,64,29.98,29.81,20,2,28,0.94
2013-10-6,69.9,61.8,53.1,66.9,53.6,46.2,98,76,47,29.95,29.81,9,2,18,0.65
2013-10-7,67.4,56.6,46.3,51.2,48.1,44.9,96,75,51,30.11,29.91,10,2,14,0.00
2013-10-8,73.0,62.2,49.3,51.6,48.1,44.8,94,63,38,30.16,30.06,9,2,17,0.00
2013-10-9,81.7,64.8,50.8,65.9,58.2,48.0,94,80,56,30.13,30.04,3,0,9,0.00
2013-10-10,82.8,68.3,56.9,65.7,61.3,56.1,98,80,50,30.13,29.98,3,0,7,0.00
2013-10-11,84.0,68.4,56.1,65.4,60.0,55.3,97,77,46,30.03,29.93,3,1,8,0.00
2013-10-12,76.6,66.6,57.3,69.3,63.1,55.9,97,89,73,30.10,29.96,5,1,7,0.14
2013-10-13,77.5,67.3,59.8,63.9,57.2,48.0,98,72,46,30.25,30.10,10,4,17,0.00
2013-10-14,81.6,66.2,51.9,63.8,55.9,47.1,85,70,52,30.23,30.05,5,1,9,0.00
2013-10-15,71.1,66.8,64.9,66.5,63.8,61.5,96,90,78,30.04,29.89,5,1,12,0.20
2013-10-16,66.2,59.9,55.6,65.3,55.9,52.5,97,87,74,30.00,29.90,7,2,16,0.22
2013-10-17,65.7,56.0,48.1,54.0,49.9,46.7,95,81,56,29.99,29.92,6,2,12,0.04
2013-10-18,72.0,57.1,44.3,55.0,49.1,43.5,97,78,44,30.05,29.91,2,0,9,0.01
2013-10-19,58.6,50.9,42.2,53.5,45.3,40.3,96,82,56,30.05,29.88,10,2,23,0.08
2013-10-20,66.7,51.1,39.1,47.2,42.4,38.0,97,76,41,30.08,29.97,7,1,12,0.01
2013-10-21,68.9,55.1,41.4,53.4,47.3,39.8,96,77,51,30.02,29.94,8,2,14,0.11
2013-10-22,63.8,53.9,42.8,51.4,42.9,37.6,93,69,42,30.05,29.84,9,2,18,0.00
2013-10-23,55.9,48.4,42.7,47.2,38.8,34.7,86,71,47,30.12,29.90,9,4,21,0.00
2013-10-24,52.9,47.1,37.5,44.2,36.8,28.4,90,69,42,30.38,30.09,13,3,20,0.00
2013-10-25,55.4,40.2,28.2,31.9,29.1,26.2,93,68,35,30.52,30.31,9,1,13,0.00
2013-10-26,62.0,47.0,31.8,48.1,38.7,29.9,94,75,52,30.30,30.05,6,1,14,0.00
2013-10-27,63.0,53.5,45.7,52.5,47.4,41.5,92,80,66,30.09,30.00,3,1,8,0.00
2013-10-28,72.6,59.1,50.5,55.7,52.3,48.9,95,80,51,30.21,30.02,3,0,7,0.00
2013-10-29,67.5,58.9,47.1,63.1,56.1,45.9,97,91,81,30.23,30.08,6,0,12,0.01
2013-10-30,76.6,68.5,63.7,66.9,63.3,61.0,93,84,70,30.12,29.94,7,2,12,0.00
2013-10-31,70.2,65.9,58.5,66.2,63.0,56.2,94,91,78,29.93,29.47,15,5,27,0.47